createdAt,value
2022-11-22T00:00:00.995Z,1014.9
2022-11-22T00:01:01.328Z,1014.9
2022-11-22T00:02:01.388Z,1014.9
2022-11-22T00:03:01.355Z,1014.8
2022-11-22T00:04:01.010Z,1014.8
2022-11-22T00:05:01.438Z,1014.8
2022-11-22T00:06:00.986Z,1014.8
2022-11-22T00:07:01.271Z,1014.8
2022-11-22T00:08:01.404Z,1014.8
2022-11-22T00:09:00.986Z,1014.8
2022-11-22T00:10:01.153Z,1014.8
2022-11-22T00:11:01.335Z,1014.8
2022-11-22T00:12:01.314Z,1014.8
2022-11-22T00:13:01.852Z,1014.7
2022-11-22T00:14:00.992Z,1014.7
2022-11-22T00:15:01.371Z,1014.7
2022-11-22T00:16:03.288Z,1014.7
2022-11-22T00:17:01.006Z,1014.7
2022-11-22T00:18:01.631Z,1014.7
2022-11-22T00:19:01.340Z,1014.7
2022-11-22T00:20:01.398Z,1014.7
2022-11-22T00:21:05.804Z,1014.7
2022-11-22T00:22:01.425Z,1014.7
2022-11-22T00:23:01.447Z,1014.8
2022-11-22T00:24:00.987Z,1014.8
2022-11-22T00:25:01.350Z,1014.9
2022-11-22T00:26:01.329Z,1014.8
2022-11-22T00:27:01.335Z,1014.8
2022-11-22T00:28:00.995Z,1014.7
2022-11-22T00:29:01.272Z,1014.7
2022-11-22T00:30:01.302Z,1014.7
2022-11-22T00:31:01.290Z,1014.6
2022-11-22T00:32:01.290Z,1014.6
2022-11-22T00:33:01.231Z,1014.6
2022-11-22T00:34:00.940Z,1014.6
2022-11-22T00:35:01.276Z,1014.6
2022-11-22T00:36:00.954Z,1014.6
2022-11-22T00:37:01.292Z,1014.7
2022-11-22T00:38:00.921Z,1014.7
2022-11-22T00:39:01.082Z,1014.7
2022-11-22T00:40:01.639Z,1014.6
2022-11-22T00:41:01.373Z,1014.6
2022-11-22T00:42:00.950Z,1014.6
2022-11-22T00:43:01.221Z,1014.6
2022-11-22T00:44:00.960Z,1014.7
2022-11-22T00:45:01.252Z,1014.8
2022-11-22T00:46:01.245Z,1014.7
2022-11-22T00:47:01.243Z,1014.8
2022-11-22T00:48:01.253Z,1014.8
2022-11-22T00:49:01.289Z,1014.7
2022-11-22T00:50:01.223Z,1014.8
2022-11-22T00:51:01.428Z,1014.8
2022-11-22T00:52:01.204Z,1014.8
2022-11-22T00:53:01.219Z,1014.8
2022-11-22T00:54:01.065Z,1014.7
2022-11-22T00:55:00.918Z,1014.7
2022-11-22T00:56:00.956Z,1014.7
2022-11-22T00:57:00.936Z,1014.7
2022-11-22T00:58:00.927Z,1014.8
2022-11-22T00:59:01.607Z,1014.7
2022-11-22T01:00:01.258Z,1014.7
2022-11-22T01:01:01.027Z,1014.7
2022-11-22T01:02:01.304Z,1014.6
2022-11-22T01:03:00.937Z,1014.6
2022-11-22T01:04:00.915Z,1014.6
2022-11-22T01:05:01.244Z,1014.7
2022-11-22T01:06:00.903Z,1014.6
2022-11-22T01:07:02.238Z,1014.7
2022-11-22T01:08:00.931Z,1014.6
2022-11-22T01:09:01.260Z,1014.7
2022-11-22T01:10:01.247Z,1014.6
2022-11-22T01:11:01.550Z,1014.6
2022-11-22T01:12:00.930Z,1014.5
2022-11-22T01:13:02.371Z,1014.5
2022-11-22T01:14:01.849Z,1014.5
2022-11-22T01:15:01.234Z,1014.4
2022-11-22T01:16:02.888Z,1014.4
2022-11-22T01:17:00.960Z,1014.4
2022-11-22T01:18:00.960Z,1014.4
2022-11-22T01:19:00.953Z,1014.3
2022-11-22T01:20:01.272Z,1014.4
2022-11-22T01:21:01.457Z,1014.4
2022-11-22T01:22:01.286Z,1014.4
2022-11-22T01:23:01.248Z,1014.5
2022-11-22T01:24:01.631Z,1014.3
2022-11-22T01:25:00.933Z,1014.3
2022-11-22T01:26:01.621Z,1014.4
2022-11-22T01:27:00.957Z,1014.5
2022-11-22T01:28:00.940Z,1014.4
2022-11-22T01:29:01.542Z,1014.3
2022-11-22T01:30:01.351Z,1014.4
2022-11-22T01:31:01.269Z,1014.3
2022-11-22T01:32:00.975Z,1014.3
2022-11-22T01:33:01.257Z,1014.3
2022-11-22T01:34:03.856Z,1014.3
2022-11-22T01:35:01.137Z,1014.3
2022-11-22T01:36:01.278Z,1014.3
2022-11-22T01:37:00.930Z,1014.3
2022-11-22T01:38:01.306Z,1014.3
2022-11-22T01:39:00.923Z,1014.3
2022-11-22T01:40:00.938Z,1014.2
2022-11-22T01:41:01.304Z,1014.3
2022-11-22T01:42:00.943Z,1014.3
2022-11-22T01:43:01.067Z,1014.4
2022-11-22T01:44:18.896Z,1014.3
2022-11-22T01:45:20.394Z,1014.3
2022-11-22T01:46:05.482Z,1014.4
2022-11-22T01:47:08.743Z,1014.4
2022-11-22T01:48:05.984Z,1014.4
2022-11-22T01:49:05.075Z,1014.5
2022-11-22T01:50:06.192Z,1014.4
2022-11-22T01:51:06.383Z,1014.4
2022-11-22T01:52:05.128Z,1014.4
2022-11-22T01:53:06.264Z,1014.4
2022-11-22T01:54:06.898Z,1014.4
2022-11-22T01:55:08.371Z,1014.4
2022-11-22T01:56:04.670Z,1014.4
2022-11-22T01:57:06.033Z,1014.4
2022-11-22T01:58:01.909Z,1014.4
2022-11-22T01:59:05.331Z,1014.4
2022-11-22T02:00:04.858Z,1014.4
2022-11-22T02:01:01.819Z,1014.4
2022-11-22T02:02:02.731Z,1014.4
2022-11-22T02:03:06.800Z,1014.4
2022-11-22T02:04:03.257Z,1014.4
2022-11-22T02:05:05.611Z,1014.4
2022-11-22T02:06:02.483Z,1014.4
2022-11-22T02:07:07.879Z,1014.4
2022-11-22T02:08:08.419Z,1014.4
2022-11-22T02:09:06.439Z,1014.4
2022-11-22T02:10:01.578Z,1014.4
2022-11-22T02:11:02.816Z,1014.4
2022-11-22T02:12:05.105Z,1014.5
2022-11-22T02:13:02.480Z,1014.5
2022-11-22T02:14:03.005Z,1014.5
2022-11-22T02:15:02.262Z,1014.5
2022-11-22T02:16:02.398Z,1014.4
2022-11-22T02:17:01.261Z,1014.4
2022-11-22T02:18:00.987Z,1014.4
2022-11-22T02:19:01.597Z,1014.5
2022-11-22T02:20:01.337Z,1014.4
2022-11-22T02:21:01.909Z,1014.4
2022-11-22T02:22:14.925Z,1014.4
2022-11-22T02:23:07.250Z,1014.4
2022-11-22T02:24:10.089Z,1014.4
2022-11-22T02:25:08.142Z,1014.4
2022-11-22T02:26:02.569Z,1014.5
2022-11-22T02:27:01.803Z,1014.5
2022-11-22T02:28:01.132Z,1014.4
2022-11-22T02:29:05.090Z,1014.4
2022-11-22T02:30:01.613Z,1014.4
2022-11-22T02:31:01.247Z,1014.4
2022-11-22T02:32:00.953Z,1014.5
2022-11-22T02:33:01.031Z,1014.4
2022-11-22T02:34:01.906Z,1014.5
2022-11-22T02:35:01.225Z,1014.4
2022-11-22T02:36:02.280Z,1014.4
2022-11-22T02:37:00.944Z,1014.4
2022-11-22T02:38:03.836Z,1014.5
2022-11-22T02:39:01.129Z,1014.4
2022-11-22T02:40:06.172Z,1014.5
2022-11-22T02:41:03.633Z,1014.5
2022-11-22T02:42:01.386Z,1014.4
2022-11-22T02:43:04.286Z,1014.5
2022-11-22T02:44:01.371Z,1014.4
2022-11-22T02:45:01.233Z,1014.4
2022-11-22T02:46:05.792Z,1014.4
2022-11-22T02:47:00.925Z,1014.4
2022-11-22T02:48:06.720Z,1014.4
2022-11-22T02:49:00.928Z,1014.4
2022-11-22T02:50:01.206Z,1014.4
2022-11-22T02:51:00.949Z,1014.4
2022-11-22T02:52:01.361Z,1014.5
2022-11-22T02:53:01.397Z,1014.5
2022-11-22T02:54:00.906Z,1014.4
2022-11-22T02:55:01.233Z,1014.4
2022-11-22T02:56:01.224Z,1014.5
2022-11-22T02:57:01.558Z,1014.5
2022-11-22T02:58:01.353Z,1014.4
2022-11-22T02:59:01.220Z,1014.4
2022-11-22T03:00:00.930Z,1014.4
2022-11-22T03:01:01.361Z,1014.5
2022-11-22T03:02:03.438Z,1014.4
2022-11-22T03:03:01.327Z,1014.4
2022-11-22T03:04:00.950Z,1014.4
2022-11-22T03:05:00.937Z,1014.4
2022-11-22T03:06:00.950Z,1014.4
2022-11-22T03:07:01.353Z,1014.4
2022-11-22T03:08:00.917Z,1014.4
2022-11-22T03:09:01.048Z,1014.4
2022-11-22T03:10:01.258Z,1014.3
2022-11-22T03:11:00.911Z,1014.4
2022-11-22T03:12:00.979Z,1014.4
2022-11-22T03:13:00.976Z,1014.4
2022-11-22T03:14:01.217Z,1014.4
2022-11-22T03:15:01.273Z,1014.3
2022-11-22T03:16:00.950Z,1014.3
2022-11-22T03:17:01.215Z,1014.3
2022-11-22T03:18:03.070Z,1014.3
2022-11-22T03:19:00.936Z,1014.2
2022-11-22T03:20:01.391Z,1014.2
2022-11-22T03:21:02.369Z,1014.2
2022-11-22T03:22:00.922Z,1014.2
2022-11-22T03:23:01.207Z,1014.3
2022-11-22T03:24:01.305Z,1014.3
2022-11-22T03:25:01.486Z,1014.2
2022-11-22T03:26:07.175Z,1014.2
2022-11-22T03:27:01.224Z,1014.2
2022-11-22T03:28:00.944Z,1014.1
2022-11-22T03:29:01.279Z,1014.2
2022-11-22T03:30:01.236Z,1014.1
2022-11-22T03:31:03.918Z,1014.1
2022-11-22T03:32:00.915Z,1014.0
2022-11-22T03:33:00.931Z,1014.0
2022-11-22T03:34:01.236Z,1014.0
2022-11-22T03:35:00.948Z,1014.0
2022-11-22T03:36:02.514Z,1014.1
2022-11-22T03:37:01.272Z,1014.1
2022-11-22T03:38:01.249Z,1014.1
2022-11-22T03:39:01.237Z,1014.1
2022-11-22T03:40:01.080Z,1014.1
2022-11-22T03:41:01.366Z,1014.1
2022-11-22T03:42:01.245Z,1014.1
2022-11-22T03:43:02.975Z,1014.1
2022-11-22T03:44:00.930Z,1014.1
2022-11-22T03:45:01.293Z,1014.1
2022-11-22T03:46:01.330Z,1014.2
2022-11-22T03:47:01.031Z,1014.2
2022-11-22T03:48:01.237Z,1014.2
2022-11-22T03:49:00.961Z,1014.1
2022-11-22T03:50:00.944Z,1014.1
2022-11-22T03:51:03.854Z,1014.1
2022-11-22T03:52:00.948Z,1014.1
2022-11-22T03:53:00.913Z,1014.1
2022-11-22T03:54:00.946Z,1014.1
2022-11-22T03:55:00.977Z,1014.1
2022-11-22T03:56:01.233Z,1014.1
2022-11-22T03:57:00.907Z,1014.1
2022-11-22T03:58:01.647Z,1014.1
2022-11-22T03:59:00.986Z,1014.1
2022-11-22T04:00:01.255Z,1014.1
2022-11-22T04:01:01.425Z,1014.1
2022-11-22T04:02:00.968Z,1014.2
2022-11-22T04:03:01.587Z,1014.2
2022-11-22T04:04:00.919Z,1014.2
2022-11-22T04:05:00.923Z,1014.1
2022-11-22T04:06:01.315Z,1014.1
2022-11-22T04:07:01.215Z,1014.1
2022-11-22T04:08:01.226Z,1014.1
2022-11-22T04:09:01.676Z,1014.1
2022-11-22T04:10:01.228Z,1014.1
2022-11-22T04:11:01.244Z,1014.1
2022-11-22T04:12:01.217Z,1014.1
2022-11-22T04:13:01.274Z,1014.1
2022-11-22T04:14:00.958Z,1014.2
2022-11-22T04:15:01.805Z,1014.1
2022-11-22T04:16:00.915Z,1014.1
2022-11-22T04:17:00.947Z,1014.1
2022-11-22T04:18:01.448Z,1014.2
2022-11-22T04:19:01.229Z,1014.1
2022-11-22T04:20:01.540Z,1014.2
2022-11-22T04:21:00.920Z,1014.2
2022-11-22T04:22:00.920Z,1014.2
2022-11-22T04:23:03.554Z,1014.1
2022-11-22T04:24:02.499Z,1014.1
2022-11-22T04:25:01.198Z,1014.2
2022-11-22T04:26:00.951Z,1014.2
2022-11-22T04:27:01.217Z,1014.2
2022-11-22T04:28:02.081Z,1014.1
2022-11-22T04:29:09.632Z,1014.2
2022-11-22T04:30:00.940Z,1014.2
2022-11-22T04:31:01.141Z,1014.2
2022-11-22T04:32:00.935Z,1014.1
2022-11-22T04:33:00.952Z,1014.2
2022-11-22T04:34:01.224Z,1014.2
2022-11-22T04:35:00.928Z,1014.2
2022-11-22T04:36:01.502Z,1014.1
2022-11-22T04:37:01.853Z,1014.2
2022-11-22T04:38:00.949Z,1014.1
2022-11-22T04:39:01.224Z,1014.2
2022-11-22T04:40:00.919Z,1014.1
2022-11-22T04:41:00.921Z,1014.1
2022-11-22T04:42:01.232Z,1014.1
2022-11-22T04:43:01.685Z,1014.1
2022-11-22T04:44:00.957Z,1014.1
2022-11-22T04:45:01.311Z,1014.1
2022-11-22T04:46:01.094Z,1014.1
2022-11-22T04:47:01.235Z,1014.1
2022-11-22T04:48:01.308Z,1014.1
2022-11-22T04:49:00.931Z,1014.1
2022-11-22T04:50:01.382Z,1014.2
2022-11-22T04:51:01.638Z,1014.1
2022-11-22T04:52:00.961Z,1014.2
2022-11-22T04:53:01.184Z,1014.2
2022-11-22T04:54:00.940Z,1014.2
2022-11-22T04:55:00.907Z,1014.2
2022-11-22T04:56:01.216Z,1014.3
2022-11-22T04:57:01.213Z,1014.3
2022-11-22T04:58:01.334Z,1014.4
2022-11-22T04:59:00.949Z,1014.4
2022-11-22T05:00:00.935Z,1014.4
2022-11-22T05:01:00.957Z,1014.4
2022-11-22T05:02:01.214Z,1014.4
2022-11-22T05:03:01.381Z,1014.4
2022-11-22T05:04:01.349Z,1014.3
2022-11-22T05:05:00.975Z,1014.3
2022-11-22T05:06:02.606Z,1014.4
2022-11-22T05:07:01.751Z,1014.4
2022-11-22T05:08:01.462Z,1014.5
2022-11-22T05:09:01.229Z,1014.4
2022-11-22T05:10:01.216Z,1014.4
2022-11-22T05:11:01.207Z,1014.4
2022-11-22T05:12:00.934Z,1014.4
2022-11-22T05:13:00.915Z,1014.4
2022-11-22T05:14:00.930Z,1014.5
2022-11-22T05:15:01.432Z,1014.4
2022-11-22T05:16:03.273Z,1014.4
2022-11-22T05:17:00.919Z,1014.4
2022-11-22T05:18:00.930Z,1014.4
2022-11-22T05:19:01.235Z,1014.4
2022-11-22T05:20:00.957Z,1014.4
2022-11-22T05:21:04.995Z,1014.4
2022-11-22T05:22:00.927Z,1014.3
2022-11-22T05:23:01.455Z,1014.4
2022-11-22T05:24:01.416Z,1014.4
2022-11-22T05:25:00.926Z,1014.4
2022-11-22T05:26:01.215Z,1014.4
2022-11-22T05:27:00.938Z,1014.4
2022-11-22T05:28:00.981Z,1014.4
2022-11-22T05:29:04.326Z,1014.4
2022-11-22T05:30:01.294Z,1014.4
2022-11-22T05:31:05.642Z,1014.4
2022-11-22T05:32:01.392Z,1014.3
2022-11-22T05:33:00.902Z,1014.4
2022-11-22T05:34:01.028Z,1014.4
2022-11-22T05:35:01.428Z,1014.5
2022-11-22T05:36:01.806Z,1014.4
2022-11-22T05:37:01.254Z,1014.5
2022-11-22T05:38:01.201Z,1014.6
2022-11-22T05:39:01.506Z,1014.6
2022-11-22T05:40:00.936Z,1014.4
2022-11-22T05:41:01.392Z,1014.4
2022-11-22T05:42:01.213Z,1014.5
2022-11-22T05:43:00.915Z,1014.5
2022-11-22T05:44:01.859Z,1014.5
2022-11-22T05:45:00.922Z,1014.5
2022-11-22T05:46:04.836Z,1014.5
2022-11-22T05:47:00.921Z,1014.5
2022-11-22T05:48:01.124Z,1014.4
2022-11-22T05:49:00.922Z,1014.5
2022-11-22T05:50:01.287Z,1014.6
2022-11-22T05:51:04.516Z,1014.6
2022-11-22T05:52:00.967Z,1014.6
2022-11-22T05:53:02.633Z,1014.6
2022-11-22T05:54:01.288Z,1014.6
2022-11-22T05:55:01.367Z,1014.6
2022-11-22T05:56:03.841Z,1014.6
2022-11-22T05:57:00.909Z,1014.5
2022-11-22T05:58:01.298Z,1014.6
2022-11-22T05:59:01.477Z,1014.6
2022-11-22T06:00:01.827Z,1014.6
2022-11-22T06:01:03.822Z,1014.6
2022-11-22T06:02:01.286Z,1014.6
2022-11-22T06:03:01.242Z,1014.7
2022-11-22T06:04:01.212Z,1014.7
2022-11-22T06:05:01.205Z,1014.7
2022-11-22T06:06:01.516Z,1014.7
2022-11-22T06:07:03.289Z,1014.7
2022-11-22T06:08:01.319Z,1014.7
2022-11-22T06:09:01.239Z,1014.6
2022-11-22T06:10:01.052Z,1014.5
2022-11-22T06:11:05.516Z,1014.5
2022-11-22T06:12:01.388Z,1014.6
2022-11-22T06:13:01.213Z,1014.6
2022-11-22T06:14:01.806Z,1014.6
2022-11-22T06:15:01.119Z,1014.5
2022-11-22T06:16:01.656Z,1014.6
2022-11-22T06:17:01.122Z,1014.6
2022-11-22T06:18:01.203Z,1014.6
2022-11-22T06:19:01.259Z,1014.7
2022-11-22T06:20:05.704Z,1014.6
2022-11-22T06:21:04.424Z,1014.6
2022-11-22T06:22:00.969Z,1014.6
2022-11-22T06:23:01.241Z,1014.7
2022-11-22T06:24:00.926Z,1014.8
2022-11-22T06:25:01.320Z,1014.8
2022-11-22T06:26:03.685Z,1014.8
2022-11-22T06:27:01.241Z,1014.8
2022-11-22T06:28:00.921Z,1014.8
2022-11-22T06:29:01.072Z,1014.9
2022-11-22T06:30:00.927Z,1014.9
2022-11-22T06:31:01.868Z,1014.9
2022-11-22T06:32:03.713Z,1014.9
2022-11-22T06:33:00.906Z,1014.9
2022-11-22T06:34:00.945Z,1014.9
2022-11-22T06:35:02.210Z,1014.9
2022-11-22T06:36:01.289Z,1015.0
2022-11-22T06:37:00.931Z,1015.0
2022-11-22T06:38:01.208Z,1015.1
2022-11-22T06:39:01.081Z,1015.1
2022-11-22T06:40:01.241Z,1015.0
2022-11-22T06:41:02.159Z,1015.1
2022-11-22T06:42:01.294Z,1015.1
2022-11-22T06:43:01.342Z,1015.0
2022-11-22T06:44:04.696Z,1015.0
2022-11-22T06:45:00.910Z,1015.1
2022-11-22T06:46:03.550Z,1015.0
2022-11-22T06:47:00.921Z,1015.1
2022-11-22T06:48:01.403Z,1015.1
2022-11-22T06:49:02.275Z,1015.2
2022-11-22T06:50:01.245Z,1015.2
2022-11-22T06:51:02.487Z,1015.3
2022-11-22T06:52:00.955Z,1015.3
2022-11-22T06:53:00.941Z,1015.4
2022-11-22T06:54:01.451Z,1015.3
2022-11-22T06:55:02.960Z,1015.3
2022-11-22T06:56:02.043Z,1015.3
2022-11-22T06:57:01.243Z,1015.3
2022-11-22T06:58:01.207Z,1015.3
2022-11-22T06:59:02.463Z,1015.2
2022-11-22T07:00:00.989Z,1015.3
2022-11-22T07:01:02.767Z,1015.2
2022-11-22T07:02:06.139Z,1015.3
2022-11-22T07:03:00.922Z,1015.2
2022-11-22T07:04:02.110Z,1015.2
2022-11-22T07:05:24.446Z,1015.2
2022-11-22T07:06:01.788Z,1015.3
2022-11-22T07:07:01.211Z,1015.3
2022-11-22T07:08:07.988Z,1015.3
2022-11-22T07:09:03.335Z,1015.3
2022-11-22T07:10:01.218Z,1015.3
2022-11-22T07:11:02.212Z,1015.3
2022-11-22T07:12:01.295Z,1015.2
2022-11-22T07:13:01.226Z,1015.2
2022-11-22T07:14:07.762Z,1015.2
2022-11-22T07:15:00.963Z,1015.2
2022-11-22T07:16:02.803Z,1015.2
2022-11-22T07:17:00.924Z,1015.1
2022-11-22T07:18:01.225Z,1015.2
2022-11-22T07:19:01.236Z,1015.2
2022-11-22T07:20:01.245Z,1015.2
2022-11-22T07:21:08.016Z,1015.2
2022-11-22T07:22:01.194Z,1015.2
2022-11-22T07:23:00.911Z,1015.2
2022-11-22T07:24:03.131Z,1015.2
2022-11-22T07:25:01.232Z,1015.2
2022-11-22T07:26:01.473Z,1015.3
2022-11-22T07:27:01.381Z,1015.3
2022-11-22T07:28:00.917Z,1015.4
2022-11-22T07:29:01.214Z,1015.4
2022-11-22T07:30:01.232Z,1015.4
2022-11-22T07:31:03.442Z,1015.5
2022-11-22T07:32:01.216Z,1015.6
2022-11-22T07:33:00.919Z,1015.6
2022-11-22T07:34:00.934Z,1015.6
2022-11-22T07:35:01.221Z,1015.6
2022-11-22T07:36:03.986Z,1015.6
2022-11-22T07:37:06.119Z,1015.6
2022-11-22T07:38:01.478Z,1015.6
2022-11-22T07:39:02.158Z,1015.6
2022-11-22T07:40:00.930Z,1015.6
2022-11-22T07:41:01.557Z,1015.5
2022-11-22T07:42:01.225Z,1015.6
2022-11-22T07:43:01.233Z,1015.6
2022-11-22T07:44:01.436Z,1015.6
2022-11-22T07:45:00.940Z,1015.7
2022-11-22T07:46:02.240Z,1015.7
2022-11-22T07:47:00.929Z,1015.8
2022-11-22T07:48:02.015Z,1015.8
2022-11-22T07:49:01.901Z,1015.8
2022-11-22T07:50:01.277Z,1015.8
2022-11-22T07:51:03.954Z,1015.9
2022-11-22T07:52:01.231Z,1015.8
2022-11-22T07:53:01.236Z,1015.9
2022-11-22T07:54:00.948Z,1015.9
2022-11-22T07:55:01.242Z,1015.8
2022-11-22T07:56:02.643Z,1015.8
2022-11-22T07:57:00.934Z,1015.8
2022-11-22T07:58:01.626Z,1015.8
2022-11-22T07:59:00.945Z,1015.8
2022-11-22T08:00:01.532Z,1015.8
2022-11-22T08:01:05.156Z,1015.8
2022-11-22T08:02:01.241Z,1015.8
2022-11-22T08:03:01.221Z,1015.8
2022-11-22T08:04:00.918Z,1015.9
2022-11-22T08:05:00.913Z,1015.8
2022-11-22T08:06:02.179Z,1015.8
2022-11-22T08:07:01.231Z,1015.8
2022-11-22T08:08:01.248Z,1015.9
2022-11-22T08:09:02.374Z,1016.0
2022-11-22T08:10:00.960Z,1016.0
2022-11-22T08:11:01.534Z,1016.0
2022-11-22T08:12:01.260Z,1016.0
2022-11-22T08:13:01.270Z,1016.0
2022-11-22T08:14:00.924Z,1016.0
2022-11-22T08:15:00.927Z,1016.0
2022-11-22T08:16:05.680Z,1016.0
2022-11-22T08:17:01.033Z,1016.0
2022-11-22T08:18:00.930Z,1016.0
2022-11-22T08:19:01.239Z,1015.9
2022-11-22T08:20:01.281Z,1015.9
2022-11-22T08:21:04.619Z,1015.9
2022-11-22T08:22:01.190Z,1015.9
2022-11-22T08:23:01.266Z,1015.9
2022-11-22T08:24:01.238Z,1015.9
2022-11-22T08:25:01.234Z,1015.9
2022-11-22T08:26:02.118Z,1015.9
2022-11-22T08:27:00.920Z,1015.9
2022-11-22T08:28:00.941Z,1016.0
2022-11-22T08:29:03.345Z,1016.0
2022-11-22T08:30:01.237Z,1016.0
2022-11-22T08:31:04.503Z,1016.0
2022-11-22T08:32:00.913Z,1016.1
2022-11-22T08:33:01.068Z,1016.1
2022-11-22T08:34:01.400Z,1016.1
2022-11-22T08:35:01.438Z,1016.1
2022-11-22T08:36:01.254Z,1016.0
2022-11-22T08:37:01.201Z,1016.0
2022-11-22T08:38:01.040Z,1016.0
2022-11-22T08:39:01.437Z,1016.0
2022-11-22T08:40:01.107Z,1016.0
2022-11-22T08:41:01.501Z,1016.1
2022-11-22T08:42:00.990Z,1016.1
2022-11-22T08:43:01.217Z,1016.2
2022-11-22T08:44:01.609Z,1016.2
2022-11-22T08:45:00.920Z,1016.1
2022-11-22T08:46:02.153Z,1016.1
2022-11-22T08:47:01.247Z,1016.2
2022-11-22T08:48:00.922Z,1016.2
2022-11-22T08:49:00.935Z,1016.3
2022-11-22T08:50:00.915Z,1016.3
2022-11-22T08:51:03.914Z,1016.3
2022-11-22T08:52:01.222Z,1016.3
2022-11-22T08:53:01.308Z,1016.3
2022-11-22T08:54:01.222Z,1016.3
2022-11-22T08:55:01.426Z,1016.3
2022-11-22T08:56:02.586Z,1016.3
2022-11-22T08:57:00.930Z,1016.3
2022-11-22T08:58:00.915Z,1016.3
2022-11-22T08:59:01.171Z,1016.3
2022-11-22T09:00:01.005Z,1016.3
2022-11-22T09:01:04.441Z,1016.3
2022-11-22T09:02:01.325Z,1016.3
2022-11-22T09:03:01.478Z,1016.3
2022-11-22T09:04:01.224Z,1016.3
2022-11-22T09:05:01.219Z,1016.3
2022-11-22T09:08:25.164Z,1016.5
2022-11-22T09:09:29.955Z,1016.6
2022-11-22T09:10:00.908Z,1016.6
2022-11-22T09:11:02.205Z,1016.7
2022-11-22T09:12:00.933Z,1016.7
2022-11-22T09:13:00.918Z,1016.7
2022-11-22T09:14:00.928Z,1016.7
2022-11-22T09:15:00.970Z,1016.8
2022-11-22T09:16:01.852Z,1016.8
2022-11-22T09:17:01.537Z,1016.8
2022-11-22T09:18:01.781Z,1016.8
2022-11-22T09:19:00.923Z,1016.8
2022-11-22T09:20:01.231Z,1016.9
2022-11-22T09:21:03.149Z,1016.8
2022-11-22T09:22:01.250Z,1016.8
2022-11-22T09:23:01.544Z,1016.8
2022-11-22T09:24:00.988Z,1016.8
2022-11-22T09:25:01.678Z,1016.8
2022-11-22T09:26:02.994Z,1016.7
2022-11-22T09:27:01.213Z,1016.7
2022-11-22T09:28:01.287Z,1016.8
2022-11-22T09:29:00.934Z,1016.8
2022-11-22T09:30:01.530Z,1016.8
2022-11-22T09:31:03.336Z,1016.8
2022-11-22T09:32:01.249Z,1016.9
2022-11-22T09:33:00.922Z,1016.9
2022-11-22T09:34:01.248Z,1016.9
2022-11-22T09:35:00.943Z,1016.9
2022-11-22T09:36:02.922Z,1017.0
2022-11-22T09:37:01.227Z,1017.0
2022-11-22T09:38:01.384Z,1017.0
2022-11-22T09:39:01.461Z,1017.0
2022-11-22T09:40:00.922Z,1017.0
2022-11-22T09:41:11.060Z,1017.0
2022-11-22T09:42:17.122Z,1017.1
2022-11-22T09:43:10.808Z,1017.0
2022-11-22T09:44:16.309Z,1017.1
2022-11-22T09:45:20.396Z,1017.1
2022-11-22T09:46:10.493Z,1017.1
2022-11-22T09:47:10.273Z,1017.2
2022-11-22T09:48:13.264Z,1017.2
2022-11-22T09:49:16.249Z,1017.3
2022-11-22T09:50:14.289Z,1017.3
2022-11-22T09:51:06.071Z,1017.3
2022-11-22T09:52:08.982Z,1017.4
2022-11-22T09:53:07.406Z,1017.4
2022-11-22T09:54:05.777Z,1017.3
2022-11-22T09:55:05.979Z,1017.3
2022-11-22T09:56:06.988Z,1017.3
2022-11-22T09:57:04.220Z,1017.2
2022-11-22T09:58:09.245Z,1017.2
2022-11-22T09:59:06.465Z,1017.1
2022-11-22T10:00:04.565Z,1017.2
2022-11-22T10:01:08.124Z,1017.1
2022-11-22T10:02:17.614Z,1017.2
2022-11-22T10:03:12.365Z,1017.3
2022-11-22T10:04:05.634Z,1017.3
2022-11-22T10:05:12.308Z,1017.4
2022-11-22T10:06:08.252Z,1017.5
2022-11-22T10:07:09.568Z,1017.5
2022-11-22T10:08:16.722Z,1017.6
2022-11-22T10:09:16.817Z,1017.6
2022-11-22T10:10:05.014Z,1017.7
2022-11-22T10:11:04.518Z,1017.7
2022-11-22T10:12:06.128Z,1017.7
2022-11-22T10:13:08.994Z,1017.7
2022-11-22T10:14:04.097Z,1017.6
2022-11-22T10:15:07.400Z,1017.6
2022-11-22T10:16:10.211Z,1017.6
2022-11-22T10:17:15.596Z,1017.6
2022-11-22T10:18:05.219Z,1017.6
2022-11-22T10:19:09.608Z,1017.6
2022-11-22T10:20:06.000Z,1017.6
2022-11-22T10:21:00.946Z,1017.6
2022-11-22T10:22:01.384Z,1017.7
2022-11-22T10:23:02.210Z,1017.7
2022-11-22T10:24:01.089Z,1017.7
2022-11-22T10:25:08.804Z,1017.6
2022-11-22T10:26:10.664Z,1017.7
2022-11-22T10:27:01.212Z,1017.7
2022-11-22T10:28:15.600Z,1017.7
2022-11-22T10:29:14.184Z,1017.7
2022-11-22T10:30:04.174Z,1017.7
2022-11-22T10:31:08.352Z,1017.7
2022-11-22T10:32:11.154Z,1017.8
2022-11-22T10:33:12.298Z,1017.8
2022-11-22T10:34:10.953Z,1017.8
2022-11-22T10:35:20.405Z,1017.9
2022-11-22T10:36:18.292Z,1017.8
2022-11-22T10:37:09.291Z,1017.8
2022-11-22T10:38:16.890Z,1017.9
2022-11-22T10:39:15.294Z,1017.8
2022-11-22T10:40:10.355Z,1017.8
2022-11-22T10:41:07.204Z,1017.9
2022-11-22T10:42:18.623Z,1017.9
2022-11-22T10:43:20.397Z,1017.9
2022-11-22T10:44:14.385Z,1017.9
2022-11-22T10:45:12.249Z,1017.9
2022-11-22T10:46:13.576Z,1018.0
2022-11-22T10:47:11.258Z,1018.0
2022-11-22T10:48:15.933Z,1018.0
2022-11-22T10:49:13.906Z,1018.1
2022-11-22T10:50:09.882Z,1018.1
2022-11-22T10:51:08.782Z,1018.1
2022-11-22T10:52:08.435Z,1018.1
2022-11-22T10:53:09.510Z,1018.1
2022-11-22T10:54:14.654Z,1018.1
2022-11-22T10:55:16.824Z,1018.1
2022-11-22T10:56:08.780Z,1018.1
2022-11-22T10:57:10.495Z,1018.1
2022-11-22T10:58:07.871Z,1018.1
2022-11-22T10:59:23.084Z,1018.1
2022-11-22T11:00:15.578Z,1018.0
2022-11-22T11:01:09.920Z,1018.0
2022-11-22T11:02:14.650Z,1018.0
2022-11-22T11:03:16.021Z,1018.0
2022-11-22T11:04:03.269Z,1018.0
2022-11-22T11:05:07.002Z,1018.0
2022-11-22T11:06:29.519Z,1018.1
2022-11-22T11:07:12.133Z,1018.1
2022-11-22T11:08:21.707Z,1018.1
2022-11-22T11:10:02.764Z,1018.1
2022-11-22T11:10:14.709Z,1018.1
2022-11-22T11:11:01.626Z,1018.2
2022-11-22T11:12:08.983Z,1018.2
2022-11-22T11:13:06.623Z,1018.2
2022-11-22T11:14:10.435Z,1018.2
2022-11-22T11:15:05.717Z,1018.3
2022-11-22T11:16:05.872Z,1018.3
2022-11-22T11:17:04.494Z,1018.3
2022-11-22T11:18:07.591Z,1018.3
2022-11-22T11:19:15.471Z,1018.3
2022-11-22T11:20:05.082Z,1018.3
2022-11-22T11:21:01.359Z,1018.3
2022-11-22T11:22:12.383Z,1018.3
2022-11-22T11:23:14.636Z,1018.3
2022-11-22T11:24:01.216Z,1018.3
2022-11-22T11:25:20.433Z,1018.3
2022-11-22T11:26:20.397Z,1018.4
2022-11-22T11:27:01.150Z,1018.4
2022-11-22T11:28:05.170Z,1018.3
2022-11-22T11:29:20.396Z,1018.3
2022-11-22T11:30:03.673Z,1018.3
2022-11-22T11:31:07.396Z,1018.3
2022-11-22T11:32:07.657Z,1018.3
2022-11-22T11:33:15.376Z,1018.3
2022-11-22T11:34:14.803Z,1018.3
2022-11-22T11:35:04.737Z,1018.4
2022-11-22T11:36:05.208Z,1018.4
2022-11-22T11:37:03.548Z,1018.4
2022-11-22T11:38:01.228Z,1018.5
2022-11-22T11:39:01.130Z,1018.5
2022-11-22T11:40:01.468Z,1018.5
2022-11-22T11:41:20.401Z,1018.6
2022-11-22T11:42:20.399Z,1018.6
2022-11-22T11:43:15.275Z,1018.6
2022-11-22T11:44:03.475Z,1018.6
2022-11-22T11:45:19.238Z,1018.6
2022-11-22T11:46:15.082Z,1018.5
2022-11-22T11:47:01.803Z,1018.5
2022-11-22T11:48:01.201Z,1018.5
2022-11-22T11:49:09.474Z,1018.6
2022-11-22T11:50:01.225Z,1018.6
2022-11-22T11:51:14.038Z,1018.7
2022-11-22T11:52:04.012Z,1018.6
2022-11-22T11:53:04.359Z,1018.7
2022-11-22T11:54:03.618Z,1018.7
2022-11-22T11:55:02.078Z,1018.7
2022-11-22T11:56:19.356Z,1018.8
2022-11-22T11:57:01.831Z,1018.8
2022-11-22T11:58:03.168Z,1018.8
2022-11-22T11:59:06.471Z,1018.8
2022-11-22T12:00:03.735Z,1018.8
2022-11-22T12:01:01.252Z,1018.8
2022-11-22T12:02:08.619Z,1018.8
2022-11-22T12:03:05.870Z,1018.9
2022-11-22T12:04:04.256Z,1018.9
2022-11-22T12:05:04.277Z,1018.9
2022-11-22T12:06:11.152Z,1019.0
2022-11-22T12:07:03.713Z,1019.0
2022-11-22T12:08:02.004Z,1019.0
2022-11-22T12:09:16.792Z,1019.0
2022-11-22T12:10:11.629Z,1019.0
2022-11-22T12:11:08.248Z,1019.0
2022-11-22T12:12:08.292Z,1019.0
2022-11-22T12:13:08.643Z,1019.0
2022-11-22T12:15:14.347Z,1019.0
2022-11-22T12:16:12.939Z,1019.0
2022-11-22T12:17:06.838Z,1019.0
2022-11-22T12:18:12.840Z,1019.0
2022-11-22T12:19:14.096Z,1019.0
2022-11-22T12:20:05.019Z,1019.0
2022-11-22T12:21:15.032Z,1019.1
2022-11-22T12:22:19.741Z,1019.1
2022-11-22T12:23:12.292Z,1019.1
2022-11-22T12:24:42.857Z,1019.1
2022-11-22T12:25:31.922Z,1019.1
2022-11-22T12:26:01.507Z,1019.1
2022-11-22T12:27:01.492Z,1019.2
2022-11-22T12:28:11.261Z,1019.1
2022-11-22T12:29:01.437Z,1019.2
2022-11-22T12:30:01.331Z,1019.2
2022-11-22T12:31:12.047Z,1019.2